Esteban Echeverria, Argentina
Current Conditions -  °F | °C
As of 6:00 AM on Sunday 21 Dec 2014 (Local Time) from SAEZ Reporting Station
Overcast Overcast  
Wind Chill: 59°   Ceiling: 7000
Heat Index: 59°   Visibility: 6mi
Dew Point: 50°   Wind: 15mph
Humidity: 72%   Direction: 190°S
Pressure: 29.74"   Gusts: NA
Location:  34.83°S, 58.47°W
Report Text: SAEZ 210900Z 19013KT 9999 FEW015 OVC070 15/10 Q1007
Loading
Personal Weather Stations






























Interactive Weather Map New forecast layout! Learn more

10-Day Weather Forecast

Advertisements
Track Severe Weather on mobile